Time;durP1;ratioP1;P1;durP2;ratioP2;P2;SDS_P1;SDS_P2;PMS_P1;PMS_P2;Temp;Humidity;BMP_temperature;BMP_pressure;BME280_temperature;BME280_humidity;BME280_pressure;Samples;Min_cycle;Max_cycle;Signal;HPM_P1;HPM_P2
2023/05/17 00:02:11;;;;;;;2.58;0.90;;;11.40;99.90;;;11.42;100.00;101724.00;5202877;28;20049;-80
2023/05/17 00:04:44;;;;;;;2.25;1.08;;;11.30;99.90;;;11.39;100.00;101724.75;5206063;28;20045;-80
2023/05/17 00:07:16;;;;;;;3.95;1.20;;;11.30;99.90;;;11.34;100.00;101720.13;5174845;28;20113;-82
2023/05/17 00:09:50;;;;;;;3.22;1.48;;;11.30;99.90;;;11.34;100.00;101725.34;5195678;28;20045;-81
2023/05/17 00:12:22;;;;;;;4.53;1.38;;;11.20;99.90;;;11.30;100.00;101724.31;5195634;28;20041;-81
2023/05/17 00:14:54;;;;;;;1.98;0.98;;;11.20;99.90;;;11.29;100.00;101716.44;5195708;28;20057;-83
2023/05/17 00:17:26;;;;;;;1.25;1.15;;;11.20;99.90;;;11.26;100.00;101721.50;5198761;23;20490;-70
2023/05/17 00:19:58;;;;;;;1.55;0.98;;;11.20;99.90;;;11.24;100.00;101724.03;5183493;28;20050;-71
2023/05/17 00:22:31;;;;;;;2.10;1.20;;;11.10;99.90;;;11.20;100.00;101722.09;5163524;28;20050;-71
2023/05/17 00:25:06;;;;;;;1.75;1.02;;;11.10;99.90;;;11.16;100.00;101721.91;5165323;28;20057;-70
2023/05/17 00:27:38;;;;;;;2.13;1.08;;;11.00;99.90;;;11.09;100.00;101726.84;5171941;28;20056;-70
2023/05/17 00:30:12;;;;;;;2.20;1.10;;;10.90;99.90;;;11.04;100.00;101723.09;5181346;28;20057;-70
2023/05/17 00:32:45;;;;;;;1.60;0.82;;;11.00;99.90;;;10.98;100.00;101730.63;5164873;28;20038;-70
2023/05/17 00:35:17;;;;;;;2.20;1.23;;;10.90;99.90;;;10.92;100.00;101730.34;5174503;28;20046;-70
2023/05/17 00:37:50;;;;;;;2.05;0.93;;;10.80;99.90;;;10.86;100.00;101730.03;5161835;28;20074;-70
2023/05/17 00:40:23;;;;;;;3.00;0.82;;;10.80;99.90;;;10.82;100.00;101735.91;5167369;28;20046;-71
2023/05/17 00:42:56;;;;;;;1.25;0.90;;;10.70;99.90;;;10.74;100.00;101725.13;5175289;28;20085;-70
2023/05/17 00:45:28;;;;;;;1.75;0.93;;;10.70;99.90;;;10.69;100.00;101730.94;5166159;28;20047;-70
2023/05/17 00:48:01;;;;;;;2.05;0.90;;;10.60;99.90;;;10.65;100.00;101731.63;5171544;28;20562;-69
2023/05/17 00:50:34;;;;;;;2.03;0.88;;;10.50;99.90;;;10.58;100.00;101733.03;5168850;28;20048;-70
2023/05/17 00:53:06;;;;;;;4.55;2.00;;;10.50;99.90;;;10.51;100.00;101731.81;5157087;28;20082;-70
2023/05/17 00:55:40;;;;;;;4.50;1.50;;;10.50;99.90;;;10.45;100.00;101739.34;5169193;28;20061;-71
2023/05/17 00:58:12;;;;;;;2.53;1.30;;;10.40;99.90;;;10.41;100.00;101731.28;5177390;28;20041;-70
2023/05/17 01:00:45;;;;;;;2.97;0.93;;;10.40;99.90;;;10.35;100.00;101729.25;5153473;28;20057;-70
2023/05/17 01:03:17;;;;;;;1.88;1.00;;;10.30;99.90;;;10.31;100.00;101732.53;5168194;28;20045;-70
2023/05/17 01:05:51;;;;;;;2.80;1.10;;;10.30;99.90;;;10.28;100.00;101732.38;5171022;28;20058;-70
2023/05/17 01:08:23;;;;;;;1.60;1.10;;;10.20;99.90;;;10.27;100.00;101733.19;5174241;28;20046;-70
2023/05/17 01:11:09;;;;;;;2.95;1.20;;;10.20;99.90;;;10.23;100.00;101737.34;5163703;28;20066;-70
2023/05/17 01:13:53;;;;;;;2.55;1.02;;;10.20;99.90;;;10.20;100.00;101734.56;5165743;28;20117;-71
2023/05/17 01:16:32;;;;;;;1.85;0.90;;;10.10;99.90;;;10.16;100.00;101743.03;5176607;28;20386;-70
2023/05/17 01:19:19;;;;;;;1.55;1.02;;;10.10;99.90;;;10.13;100.00;101739.38;5166251;28;20050;-70
2023/05/17 01:22:11;;;;;;;1.38;0.90;;;10.10;99.90;;;10.08;100.00;101739.13;5171259;28;20065;-71
2023/05/17 01:25:01;;;;;;;2.25;1.10;;;10.10;99.90;;;10.05;100.00;101749.41;5164989;28;20173;-70
2023/05/17 01:27:36;;;;;;;3.67;1.13;;;10.00;99.90;;;10.02;100.00;101747.53;5168985;28;20048;-71
2023/05/17 01:30:12;;;;;;;3.60;0.90;;;10.00;99.90;;;9.99;100.00;101744.78;5166342;28;20050;-71
2023/05/17 01:32:46;;;;;;;1.02;0.80;;;9.90;99.90;;;9.98;100.00;101747.31;5164161;28;20060;-70
2023/05/17 01:35:19;;;;;;;3.13;1.10;;;9.90;99.90;;;9.97;100.00;101748.97;5147079;28;20054;-70
2023/05/17 01:37:52;;;;;;;3.08;1.40;;;9.90;99.90;;;9.95;100.00;101748.00;5146721;28;20141;-71
2023/05/17 01:40:25;;;;;;;3.45;1.60;;;9.90;99.90;;;9.93;100.00;101743.56;5146772;28;20054;-70
2023/05/17 01:43:10;;;;;;;3.08;1.20;;;9.90;99.90;;;9.90;100.00;101754.69;5146737;28;20049;-69
2023/05/17 01:45:54;;;;;;;2.42;1.20;;;9.90;99.90;;;9.87;100.00;101758.84;5146961;28;20141;-70
2023/05/17 01:48:32;;;;;;;2.50;1.05;;;9.80;99.90;;;9.85;100.00;101760.50;5147117;28;20407;-73
2023/05/17 01:51:05;;;;;;;1.52;1.33;;;9.80;99.90;;;9.81;100.00;101763.75;5162668;28;20046;-70
2023/05/17 01:53:40;;;;;;;2.50;1.20;;;9.80;99.90;;;9.75;100.00;101761.69;5172067;28;20377;-70
2023/05/17 01:56:16;;;;;;;3.80;1.27;;;9.70;99.90;;;9.74;100.00;101772.94;5163618;28;20410;-70
2023/05/17 01:58:53;;;;;;;2.78;0.98;;;9.70;99.90;;;9.71;100.00;101773.66;5162967;28;20065;-69
2023/05/17 02:01:29;;;;;;;4.43;1.05;;;9.70;99.90;;;9.70;100.00;101776.16;5156567;28;20042;-70
2023/05/17 02:04:01;;;;;;;2.30;0.90;;;9.70;99.90;;;9.70;100.00;101773.56;5162624;28;20406;-70
2023/05/17 02:06:35;;;;;;;3.40;1.10;;;9.70;99.90;;;9.70;100.00;101777.06;5146179;28;20053;-70
2023/05/17 02:09:07;;;;;;;3.13;1.40;;;9.70;99.90;;;9.71;100.00;101784.06;5163604;28;20062;-70
2023/05/17 02:11:39;;;;;;;2.60;1.25;;;9.70;99.90;;;9.72;100.00;101775.47;5145673;28;20446;-70
2023/05/17 02:14:13;;;;;;;3.25;1.30;;;9.70;99.90;;;9.73;100.00;101776.34;5164032;28;20073;-70
2023/05/17 02:16:45;;;;;;;4.40;1.30;;;9.70;99.90;;;9.72;100.00;101774.56;5163632;28;20045;-70
2023/05/17 02:19:17;;;;;;;3.47;1.33;;;9.70;99.90;;;9.70;100.00;101776.16;5146363;28;20573;-70
2023/05/17 02:21:49;;;;;;;1.85;1.17;;;9.70;99.90;;;9.68;100.00;101780.41;5145967;28;20053;-70
2023/05/17 02:24:21;;;;;;;2.20;1.02;;;9.70;99.90;;;9.66;100.00;101779.44;5146241;28;20054;-69
2023/05/17 02:26:53;;;;;;;2.45;1.23;;;9.60;99.90;;;9.65;100.00;101772.41;5159690;28;20049;-70
2023/05/17 02:29:27;;;;;;;3.08;1.13;;;9.60;99.90;;;9.65;100.00;101772.41;5164349;28;20042;-70
2023/05/17 02:31:59;;;;;;;2.60;1.25;;;9.60;99.90;;;9.64;100.00;101783.66;5171003;28;20050;-71
2023/05/17 02:34:33;;;;;;;2.42;1.33;;;9.60;99.90;;;9.63;100.00;101781.88;5153461;28;20050;-70
2023/05/17 02:37:05;;;;;;;5.22;1.60;;;9.60;99.90;;;9.59;100.00;101783.44;5145701;28;20057;-73
2023/05/17 02:39:37;;;;;;;3.50;1.50;;;9.60;99.90;;;9.59;100.00;101785.13;5171172;28;20042;-71
2023/05/17 02:42:11;;;;;;;3.60;1.52;;;9.60;99.90;;;9.59;100.00;101785.13;5153096;28;20050;-70
2023/05/17 02:44:47;;;;;;;3.05;1.40;;;9.60;99.90;;;9.59;100.00;101782.53;5163148;28;20049;-70
2023/05/17 02:47:20;;;;;;;2.58;1.20;;;9.50;99.90;;;9.56;100.00;101787.56;5171446;28;20038;-72
2023/05/17 02:49:53;;;;;;;2.72;1.20;;;9.50;99.90;;;9.54;100.00;101791.78;5169647;28;20568;-71
2023/05/17 02:52:25;;;;;;;2.08;1.15;;;9.50;99.90;;;9.50;100.00;101794.22;5161116;28;20053;-71
2023/05/17 02:54:57;;;;;;;2.60;1.40;;;9.50;99.90;;;9.46;100.00;101792.28;5152701;28;20045;-71
2023/05/17 02:57:29;;;;;;;2.85;1.40;;;9.40;99.90;;;9.42;100.00;101798.09;5146367;28;20132;-70
2023/05/17 03:00:05;;;;;;;2.42;1.27;;;9.40;99.90;;;9.38;100.00;101790.94;5145489;28;20577;-70
2023/05/17 03:02:37;;;;;;;2.05;1.10;;;9.40;99.90;;;9.35;100.00;101798.56;5144901;28;20039;-71
2023/05/17 03:05:11;;;;;;;3.00;1.25;;;9.30;99.90;;;9.32;100.00;101792.28;5163634;28;20045;-71
2023/05/17 03:07:47;;;;;;;2.33;1.35;;;9.30;99.90;;;9.28;100.00;101791.25;5151949;28;20078;-70
2023/05/17 03:10:20;;;;;;;3.72;1.30;;;9.20;99.90;;;9.24;100.00;101799.69;5153209;28;20053;-71
2023/05/17 03:12:52;;;;;;;1.20;1.02;;;9.20;99.90;;;9.23;100.00;101790.09;5145224;28;20535;-70
2023/05/17 03:15:28;;;;;;;2.78;1.52;;;9.20;99.90;;;9.21;100.00;101789.13;5171045;28;20042;-71
2023/05/17 03:18:00;;;;;;;3.65;1.30;;;9.20;99.90;;;9.22;100.00;101790.91;5144992;28;20054;-71
2023/05/17 03:20:34;;;;;;;3.42;1.58;;;9.20;99.90;;;9.22;100.00;101796.09;5162471;28;20525;-71
2023/05/17 03:23:06;;;;;;;3.92;1.40;;;9.20;99.90;;;9.19;100.00;101801.13;5162119;28;20117;-72
2023/05/17 03:25:42;;;;;;;2.40;1.75;;;9.20;99.90;;;9.16;100.00;101806.16;5150340;28;20049;-70
2023/05/17 03:28:15;;;;;;;3.22;1.58;;;9.20;99.90;;;9.12;100.00;101806.78;5148021;28;20081;-71
2023/05/17 03:30:48;;;;;;;2.85;1.80;;;9.10;99.90;;;9.08;100.00;101804.84;5161099;28;20407;-70
2023/05/17 03:33:20;;;;;;;4.55;2.15;;;9.10;99.90;;;9.06;100.00;101799.53;5144866;28;20057;-70
2023/05/17 03:35:53;;;;;;;3.17;2.00;;;9.10;99.90;;;9.05;100.00;101802.06;5144979;28;20051;-71
2023/05/17 03:38:25;;;;;;;3.08;1.98;;;9.00;99.90;;;9.00;100.00;101800.88;5161270;28;20084;-70
2023/05/17 03:40:57;;;;;;;3.80;2.08;;;9.00;99.90;;;8.97;100.00;101805.13;5145816;28;20538;-70
2023/05/17 03:43:29;;;;;;;3.40;1.80;;;8.90;99.90;;;8.95;100.00;101806.75;5151722;28;20048;-70
2023/05/17 03:46:05;;;;;;;4.63;1.35;;;8.90;99.90;;;8.92;100.00;101808.25;5169385;28;20060;-71
2023/05/17 03:48:37;;;;;;;3.22;1.70;;;8.90;99.90;;;8.89;100.00;101805.50;5164730;28;20138;-70
2023/05/17 03:51:11;;;;;;;3.30;1.40;;;8.90;99.90;;;8.87;100.00;101820.13;5148144;28;20050;-71
2023/05/17 03:53:43;;;;;;;2.20;1.33;;;8.90;99.90;;;8.84;100.00;101822.53;5156920;28;20069;-70
2023/05/17 03:56:16;;;;;;;3.42;1.38;;;8.90;99.90;;;8.81;100.00;101827.56;5150151;28;20054;-70
2023/05/17 03:58:48;;;;;;;3.25;1.55;;;8.80;99.90;;;8.78;100.00;101827.38;5173271;28;20454;-70
2023/05/17 04:01:22;;;;;;;3.30;1.67;;;8.80;99.90;;;8.76;100.00;101839.41;5148302;28;20053;-71
2023/05/17 04:03:55;;;;;;;3.15;1.70;;;8.70;99.90;;;8.75;100.00;101838.50;5164802;28;20406;-70
2023/05/17 04:06:28;;;;;;;4.10;1.52;;;8.70;99.90;;;8.73;100.00;101837.50;5148774;28;20136;-69
2023/05/17 04:09:00;;;;;;;1.92;1.50;;;8.70;99.90;;;8.73;100.00;101837.50;5155521;28;20054;-69
2023/05/17 04:11:33;;;;;;;2.75;1.42;;;8.70;99.90;;;8.74;100.00;101835.78;5159706;28;20050;-71
2023/05/17 04:14:06;;;;;;;3.42;1.52;;;8.70;99.90;;;8.75;100.00;101833.28;5168861;28;20050;-71
2023/05/17 04:16:39;;;;;;;2.25;1.52;;;8.80;99.90;;;8.79;100.00;101843.06;5148791;28;20051;-71
2023/05/17 04:19:11;;;;;;;3.33;1.50;;;8.80;99.90;;;8.82;100.00;101847.56;5148998;28;20046;-70
2023/05/17 04:21:45;;;;;;;2.35;1.70;;;8.80;99.90;;;8.86;100.00;101847.78;5148166;28;20340;-70
2023/05/17 04:24:17;;;;;;;3.85;1.55;;;8.90;99.90;;;8.92;100.00;101842.97;5148339;28;20087;-71
2023/05/17 04:26:51;;;;;;;3.40;1.63;;;8.90;99.90;;;9.01;100.00;101845.22;5148491;28;20472;-71
2023/05/17 04:29:26;;;;;;;;;;;9.00;99.90;;;9.11;100.00;101854.44;5148655;28;20054;-70
2023/05/17 04:31:59;;;;;;;2.65;1.38;;;9.10;99.90;;;9.19;100.00;101847.94;5147398;28;19961;-71
2023/05/17 04:34:31;;;;;;;5.10;2.20;;;9.10;99.90;;;9.30;100.00;101862.47;5148236;28;20050;-70
2023/05/17 04:37:05;;;;;;;3.58;2.00;;;9.20;99.90;;;9.38;100.00;101855.97;5148110;28;20053;-70
2023/05/17 04:39:40;;;;;;;4.05;2.00;;;9.40;99.90;;;9.48;100.00;101866.13;5148056;28;20058;-71
2023/05/17 04:42:12;;;;;;;4.30;2.05;;;9.40;99.90;;;9.58;100.00;101867.50;5163338;28;20132;-71
2023/05/17 04:44:49;;;;;;;3.83;1.83;;;9.50;99.90;;;9.68;100.00;101868.94;5155860;28;20074;-70
2023/05/17 04:47:23;;;;;;;4.53;2.00;;;9.60;99.90;;;9.75;100.00;101874.56;5165070;28;20042;-71
2023/05/17 04:49:55;;;;;;;4.20;1.80;;;9.70;99.90;;;9.83;100.00;101880.19;5171605;28;20050;-71
2023/05/17 04:52:27;;;;;;;3.42;1.80;;;9.80;99.90;;;9.89;100.00;101883.13;5174398;28;20129;-71
2023/05/17 04:54:59;;;;;;;3.80;1.65;;;9.80;99.90;;;9.94;100.00;101881.69;5169156;28;20529;-70
2023/05/17 04:57:32;;;;;;;3.22;1.63;;;9.90;99.90;;;10.01;100.00;101883.81;5155677;28;20089;-71
2023/05/17 05:00:10;;;;;;;4.53;1.92;;;9.90;99.90;;;10.06;100.00;101887.56;5155404;28;20073;-71
2023/05/17 05:02:46;;;;;;;3.75;1.77;;;10.00;99.90;;;10.12;100.00;101881.78;5147128;28;20120;-72
2023/05/17 05:05:19;;;;;;;2.42;1.70;;;10.00;99.90;;;10.18;100.00;101881.22;5148343;28;20050;-70
2023/05/17 05:07:52;;;;;;;3.63;1.75;;;10.10;99.90;;;10.26;100.00;101877.34;5159992;28;20050;-71
2023/05/17 05:10:27;;;;;;;4.10;1.70;;;10.20;99.90;;;10.32;100.00;101890.69;5173804;28;20049;-70
2023/05/17 05:12:59;;;;;;;3.42;1.83;;;10.30;99.90;;;10.40;100.00;101893.72;5171148;28;20129;-70
2023/05/17 05:15:34;;;;;;;3.65;1.95;;;10.30;99.90;;;10.45;100.00;101898.34;5163474;28;20050;-70
2023/05/17 05:18:08;;;;;;;3.40;1.90;;;10.40;99.90;;;10.52;100.00;101887.44;5164960;28;20423;-70
2023/05/17 05:20:41;;;;;;;5.57;2.35;;;10.40;99.90;;;10.57;100.00;101908.53;5154898;28;20133;-70
2023/05/17 05:23:14;;;;;;;5.10;2.83;;;10.50;99.90;;;10.59;100.00;101902.56;5171434;28;20050;-70
2023/05/17 05:25:48;;;;;;;5.90;2.55;;;10.50;99.90;;;10.62;100.00;101906.16;5162409;28;20046;-71
2023/05/17 05:28:21;;;;;;;4.82;2.53;;;10.60;99.90;;;10.67;100.00;101912.50;5173712;28;20058;-70
2023/05/17 05:30:59;;;;;;;5.22;2.60;;;10.60;99.90;;;10.72;100.00;101908.44;5182634;28;20572;-71
2023/05/17 05:33:33;;;;;;;5.22;2.40;;;10.60;99.90;;;10.77;100.00;101913.06;5171811;28;21114;-71
2023/05/17 05:36:06;;;;;;;4.65;2.30;;;10.70;99.90;;;10.84;100.00;101906.47;5147092;28;20058;-71
2023/05/17 05:38:38;;;;;;;4.63;2.15;;;10.70;99.90;;;10.90;100.00;101901.56;5167865;28;20522;-70
2023/05/17 05:41:11;;;;;;;5.45;2.33;;;10.80;99.90;;;10.96;100.00;101907.09;5167953;28;20491;-71
2023/05/17 05:43:43;;;;;;;5.85;2.20;;;10.80;99.90;;;11.06;100.00;101901.50;5174751;28;20137;-70
2023/05/17 05:46:16;;;;;;;6.47;2.05;;;10.90;99.90;;;11.15;100.00;101911.53;5166015;28;20761;-71
2023/05/17 05:48:50;;;;;;;4.65;2.60;;;11.00;99.90;;;11.23;100.00;101914.50;5151362;28;20137;-71
2023/05/17 05:51:23;;;;;;;9.90;4.03;;;11.10;99.90;;;11.23;100.00;101904.97;5156289;28;20046;-72
2023/05/17 05:53:57;;;;;;;11.48;3.90;;;11.10;99.90;;;11.14;100.00;101912.31;5164069;28;20043;-71
2023/05/17 05:56:29;;;;;;;8.20;3.50;;;11.00;99.90;;;11.07;100.00;101911.09;5166734;28;20056;-71
2023/05/17 05:59:03;;;;;;;8.13;3.00;;;11.00;99.90;;;11.05;100.00;101909.25;5172076;28;20604;-70
2023/05/17 06:01:36;;;;;;;9.15;3.88;;;11.00;99.90;;;10.98;100.00;101913.28;5164700;28;20045;-71
2023/05/17 06:04:09;;;;;;;12.38;4.25;;;10.90;99.90;;;10.92;100.00;101918.19;5183460;28;20045;-59
2023/05/17 06:06:41;;;;;;;9.18;3.63;;;10.90;99.90;;;10.87;100.00;101919.66;5163721;28;20144;-57
2023/05/17 06:09:13;;;;;;;11.27;4.07;;;10.80;99.90;;;10.86;100.00;101920.47;5146494;28;20042;-60
2023/05/17 06:11:45;;;;;;;14.55;5.70;;;10.80;99.90;;;10.86;100.00;101930.91;5163243;28;20069;-59
2023/05/17 06:14:17;;;;;;;10.73;4.35;;;10.80;99.90;;;10.83;100.00;101938.59;5163829;28;20069;-58
2023/05/17 06:16:49;;;;;;;11.15;4.80;;;10.80;99.90;;;10.84;100.00;101942.97;5178512;23;20054;-58
2023/05/17 06:19:23;;;;;;;16.52;7.68;;;10.80;99.90;;;10.81;100.00;101945.41;5184574;28;20039;-60
2023/05/17 06:21:55;;;;;;;14.60;6.57;;;10.80;99.90;;;10.80;100.00;101946.22;5152276;28;20053;-61
2023/05/17 06:24:27;;;;;;;19.35;6.63;;;10.80;99.90;;;10.81;100.00;101951.53;5163354;28;20042;-59
2023/05/17 06:26:59;;;;;;;18.90;7.55;;;10.80;99.90;;;10.83;100.00;101955.13;5163675;28;20050;-56
2023/05/17 06:29:31;;;;;;;17.27;8.23;;;10.80;99.90;;;10.93;100.00;101956.47;5163076;28;20042;-56
2023/05/17 06:32:04;;;;;;;21.20;8.27;;;10.90;99.90;;;11.07;100.00;101947.66;5162793;28;20059;-56
2023/05/17 06:34:38;;;;;;;15.90;7.05;;;11.00;99.90;;;11.23;100.00;101958.88;5163076;28;20050;-56
2023/05/17 06:37:10;;;;;;;17.25;8.27;;;11.10;99.90;;;11.36;100.00;101951.75;5163715;28;20046;-58
2023/05/17 06:39:42;;;;;;;17.95;8.60;;;11.30;99.90;;;11.52;100.00;101956.00;5162859;28;20046;-56
2023/05/17 06:42:14;;;;;;;19.67;9.13;;;11.40;99.90;;;11.69;100.00;101955.13;5162470;28;20046;-60
2023/05/17 06:44:47;;;;;;;20.20;8.98;;;11.60;99.90;;;11.90;100.00;101951.78;5155015;28;20046;-59
2023/05/17 06:47:19;;;;;;;18.95;8.85;;;11.70;99.90;;;12.06;100.00;101956.91;5162820;28;20514;-60
2023/05/17 06:49:53;;;;;;;17.02;8.30;;;11.90;99.90;;;12.16;100.00;101960.84;5162807;28;20042;-58
2023/05/17 06:52:25;;;;;;;21.52;8.73;;;12.00;99.90;;;12.30;100.00;101961.47;5162053;28;20051;-60
2023/05/17 06:54:57;;;;;;;24.05;8.90;;;12.10;99.90;;;12.70;100.00;101961.56;5162446;28;20104;-60
2023/05/17 06:57:29;;;;;;;21.30;8.70;;;12.40;99.90;;;13.27;100.00;101960.63;5162411;28;20050;-62
2023/05/17 07:00:01;;;;;;;24.20;9.18;;;12.80;99.90;;;13.92;100.00;101960.63;5162261;28;20072;-61
2023/05/17 07:02:33;;;;;;;21.10;8.68;;;13.30;99.90;;;14.38;100.00;101961.56;5161623;28;20054;-62
2023/05/17 07:05:07;;;;;;;16.42;7.22;;;13.70;99.90;;;14.69;100.00;101957.50;5162576;28;20447;-62
2023/05/17 07:07:39;;;;;;;;;;;14.10;99.90;;;14.95;100.00;101960.19;5162854;28;20054;-61
2023/05/17 07:10:12;;;;;;;17.65;6.97;;;14.40;99.90;;;15.32;100.00;101960.63;5162474;28;19921;-62
2023/05/17 07:12:44;;;;;;;14.95;7.43;;;14.70;99.90;;;15.57;98.02;101964.03;5161674;28;20125;-60
2023/05/17 07:15:16;;;;;;;15.38;6.38;;;15.00;99.90;;;15.76;97.01;101971.72;5161086;28;20046;-60
2023/05/17 07:17:48;;;;;;;11.48;5.70;;;15.20;99.90;;;15.98;95.05;101974.19;5153342;28;20108;-60
2023/05/17 07:20:21;;;;;;;13.60;5.85;;;15.40;99.90;;;16.04;92.17;101983.09;5162350;28;20049;-60
2023/05/17 07:22:55;;;;;;;9.93;4.97;;;15.50;99.90;;;16.05;91.33;101980.53;5161725;28;20043;-61
2023/05/17 07:25:27;;;;;;;12.63;4.88;;;15.50;99.90;;;16.11;89.92;101985.09;5162452;28;20102;-61
2023/05/17 07:27:59;;;;;;;12.13;5.13;;;15.60;99.90;;;16.17;88.79;101987.91;5162881;28;20047;-61
2023/05/17 07:30:31;;;;;;;13.07;4.85;;;15.70;99.90;;;16.22;87.75;101989.81;5162309;28;20046;-60
2023/05/17 07:33:03;;;;;;;8.95;4.15;;;15.70;99.90;;;16.49;87.12;101989.75;5162270;28;20046;-61
2023/05/17 07:35:37;;;;;;;11.95;4.93;;;15.90;99.90;;;16.73;86.12;101994.00;5162392;28;20046;-61
2023/05/17 07:38:10;;;;;;;11.10;4.22;;;16.10;99.90;;;16.85;85.23;101994.34;5162496;28;20161;-61
2023/05/17 07:40:42;;;;;;;11.63;4.13;;;16.20;99.90;;;16.99;84.33;101990.34;5162311;28;20049;-61
2023/05/17 07:43:14;;;;;;;9.93;4.07;;;16.30;99.30;;;17.03;83.06;101984.31;5161956;28;20042;-61
2023/05/17 07:45:46;;;;;;;7.90;3.78;;;16.40;98.70;;;16.80;81.65;101993.31;5156838;28;20388;-59
2023/05/17 07:48:18;;;;;;;9.20;4.03;;;16.40;97.70;;;16.79;82.26;101994.19;5162564;28;20069;-60
2023/05/17 07:50:51;;;;;;;9.85;4.22;;;16.30;97.80;;;16.98;81.92;101992.94;5156559;28;20714;-60
2023/05/17 07:53:24;;;;;;;8.75;3.40;;;16.30;97.90;;;17.04;80.73;101996.66;5162070;28;20042;-61
2023/05/17 07:55:56;;;;;;;9.63;3.72;;;16.40;97.30;;;16.87;79.49;101997.03;5162618;28;20050;-60
2023/05/17 07:58:28;;;;;;;8.50;3.30;;;16.30;96.40;;;16.67;79.49;102001.69;5162433;28;20054;-60
2023/05/17 08:01:00;;;;;;;7.22;3.35;;;16.20;96.00;;;16.63;80.31;101997.19;5162038;28;20388;-60
2023/05/17 08:03:32;;;;;;;10.40;3.05;;;16.10;96.40;;;16.63;79.84;102005.09;5162204;28;20049;-62
2023/05/17 08:06:06;;;;;;;7.43;2.72;;;16.10;96.30;;;16.72;79.58;102008.91;5162441;28;20049;-60
2023/05/17 08:08:38;;;;;;;9.00;3.17;;;16.10;96.20;;;16.98;78.42;102009.66;5162406;28;20411;-60
2023/05/17 08:11:11;;;;;;;14.93;3.65;;;16.20;95.90;;;17.01;77.15;102004.44;5161868;28;20049;-62
2023/05/17 08:13:43;;;;;;;7.78;2.83;;;16.20;95.20;;;16.71;77.26;102007.13;5162008;28;20034;-62
2023/05/17 08:16:15;;;;;;;7.03;2.60;;;16.10;94.60;;;16.62;77.60;102005.91;5161017;28;20084;-60
2023/05/17 08:18:47;;;;;;;8.32;2.42;;;16.00;94.80;;;16.46;77.26;102005.47;5162117;28;20388;-62
2023/05/17 08:21:21;;;;;;;12.05;2.70;;;15.90;94.50;;;16.51;79.19;102009.16;5161765;28;20113;-64
2023/05/17 08:23:53;;;;;;;8.60;2.42;;;15.90;95.60;;;16.99;78.72;102008.78;5162121;28;20041;-64
2023/05/17 08:26:25;;;;;;;7.93;2.63;;;16.10;95.70;;;18.39;75.40;101998.25;5161890;28;20042;-62
2023/05/17 08:28:57;;;;;;;5.57;1.77;;;16.70;95.20;;;20.14;69.73;102004.13;5163153;28;20510;-63
2023/05/17 08:31:30;;;;;;;4.28;1.42;;;17.50;93.50;;;21.94;64.49;102007.06;5164241;28;20045;-64
2023/05/17 08:34:02;;;;;;;6.93;1.70;;;18.50;91.20;;;22.33;59.71;102010.88;5165019;28;20042;-57
2023/05/17 08:36:35;;;;;;;5.63;1.42;;;19.30;83.50;;;21.78;59.12;101999.88;5162816;28;20042;-58
2023/05/17 08:39:07;;;;;;;4.53;1.50;;;19.40;79.00;;;21.37;57.57;102008.34;5163311;28;20450;-58
2023/05/17 08:41:40;;;;;;;6.50;2.10;;;19.40;74.80;;;21.03;58.03;102011.50;5164541;28;20054;-57
2023/05/17 08:44:12;;;;;;;7.63;1.27;;;19.20;74.00;;;20.40;57.51;102017.72;5165577;28;20121;-57
2023/05/17 08:46:52;;;;;;;5.55;1.38;;;19.00;71.90;;;20.66;57.35;102012.81;5165120;28;20042;-58
2023/05/17 08:49:27;;;;;;;3.40;1.38;;;18.90;71.80;;;22.58;55.13;102014.53;5165050;28;20042;-57
2023/05/17 08:52:08;;;;;;;5.28;1.58;;;19.90;71.40;;;23.79;52.03;102014.84;5164962;28;20117;-58
2023/05/17 08:54:41;;;;;;;4.35;1.48;;;20.90;68.40;;;22.75;51.36;102014.59;5165145;28;20130;-58
2023/05/17 08:57:16;;;;;;;3.85;1.30;;;20.80;65.40;;;21.93;53.58;102018.56;5165209;28;20499;-59
2023/05/17 08:59:48;;;;;;;5.82;1.75;;;20.40;66.10;;;22.92;53.34;102018.25;5165433;28;20439;-58
2023/05/17 09:02:22;;;;;;;4.38;1.60;;;20.70;67.10;;;23.20;51.10;102018.31;5164707;28;20038;-59
2023/05/17 09:04:56;;;;;;;4.30;1.40;;;21.00;64.40;;;22.64;52.06;102024.31;5144403;28;20097;-59
2023/05/17 09:07:29;;;;;;;;;;;20.80;64.30;;;21.76;53.53;102012.22;5162675;28;20558;-58
2023/05/17 09:10:04;;;;;;;3.70;1.00;;;20.40;65.00;;;21.54;54.39;102015.56;5164048;28;19921;-58
2023/05/17 09:12:36;;;;;;;4.18;1.30;;;20.10;65.80;;;22.16;53.81;102012.53;5165121;28;20522;-60
2023/05/17 09:15:16;;;;;;;3.15;1.08;;;20.30;66.30;;;21.92;53.47;102019.44;5163572;28;20034;-59
2023/05/17 09:17:52;;;;;;;4.57;1.40;;;20.30;65.30;;;21.46;54.30;102017.28;5164912;28;20133;-59
2023/05/17 09:20:32;;;;;;;4.47;1.38;;;20.20;65.40;;;21.00;56.64;102011.47;5163239;28;20118;-58
2023/05/17 09:23:08;;;;;;;5.75;1.30;;;19.80;67.40;;;20.69;57.40;102015.50;5164238;28;20530;-58
2023/05/17 09:25:47;;;;;;;3.75;1.20;;;19.60;68.00;;;20.85;56.54;102013.03;5163521;28;20097;-64
2023/05/17 09:28:20;;;;;;;4.70;1.42;;;19.70;67.60;;;21.05;55.00;102015.03;5161216;28;20101;-61
2023/05/17 09:30:52;;;;;;;5.20;1.20;;;20.00;66.10;;;21.05;54.45;102010.63;5163976;28;20046;-62
2023/05/17 09:33:24;;;;;;;4.57;1.50;;;20.10;64.90;;;21.00;55.01;102020.31;5163923;28;20043;-61
2023/05/17 09:35:56;;;;;;;3.35;1.02;;;20.20;64.90;;;20.94;54.29;102014.06;5152525;28;20034;-61
2023/05/17 09:38:30;;;;;;;3.58;0.98;;;20.20;64.00;;;20.82;53.02;102018.31;5159334;28;20130;-62
2023/05/17 09:41:02;;;;;;;2.63;1.38;;;20.20;62.70;;;20.77;52.84;102020.03;5163941;28;20034;-62
2023/05/17 09:43:34;;;;;;;3.75;1.27;;;20.10;62.20;;;20.94;53.65;102019.34;5163916;28;20101;-62
2023/05/17 09:46:06;;;;;;;5.43;1.30;;;20.20;63.00;;;21.06;54.48;102011.50;5162487;28;20046;-58
2023/05/17 09:48:39;;;;;;;4.05;1.30;;;20.30;64.00;;;21.26;55.50;102007.34;5163116;28;20050;-59
2023/05/17 09:51:11;;;;;;;5.05;1.30;;;20.50;64.80;;;21.49;54.51;102009.34;5162966;28;20042;-57
2023/05/17 09:53:44;;;;;;;4.60;1.27;;;20.70;64.00;;;21.68;54.01;102014.81;5162985;28;20047;-57
2023/05/17 09:56:18;;;;;;;5.05;1.20;;;20.80;63.50;;;21.60;53.05;102010.31;5162093;28;20050;-57
2023/05/17 09:58:50;;;;;;;3.85;1.13;;;20.80;62.40;;;21.36;52.97;102000.38;5162942;28;20046;-56
2023/05/17 10:01:26;;;;;;;6.80;1.00;;;20.70;62.10;;;21.27;53.14;102001.16;5162243;28;20414;-59
2023/05/17 10:04:02;;;;;;;5.18;1.42;;;20.60;62.20;;;21.19;53.64;101997.53;5141935;28;20049;-58
2023/05/17 10:06:36;;;;;;;6.63;1.58;;;20.50;62.70;;;20.97;54.96;101998.16;5160224;28;20117;-60
2023/05/17 10:09:13;;;;;;;5.50;1.55;;;20.30;63.80;;;20.93;54.98;102012.25;5164126;28;20042;-60
2023/05/17 10:11:47;;;;;;;6.63;1.58;;;20.30;63.80;;;20.80;54.45;102001.53;5163688;28;20495;-59
2023/05/17 10:14:24;;;;;;;4.82;1.58;;;20.20;63.30;;;20.80;54.77;102003.25;5164010;28;20061;-59
2023/05/17 10:16:56;;;;;;;5.35;1.40;;;20.10;63.60;;;20.93;54.89;101988.38;5163696;28;20042;-59
2023/05/17 10:19:29;;;;;;;5.30;1.50;;;20.20;63.70;;;21.01;54.84;101984.09;5163727;28;20046;-59
2023/05/17 10:22:02;;;;;;;3.17;1.17;;;20.30;63.80;;;21.04;54.27;101986.75;5163165;28;20042;-60
2023/05/17 10:24:37;;;;;;;6.05;1.60;;;20.30;63.40;;;20.83;53.77;101992.72;5163560;28;20048;-60
2023/05/17 10:27:09;;;;;;;3.63;1.20;;;20.20;62.50;;;20.70;53.19;101986.38;5163661;28;20042;-60
2023/05/17 10:29:42;;;;;;;3.88;1.52;;;20.10;61.60;;;20.72;55.47;101992.56;5163344;28;20050;-61
2023/05/17 10:32:16;;;;;;;6.80;1.63;;;20.10;64.00;;;20.56;54.55;101977.38;5162726;28;20072;-61
2023/05/17 10:34:51;;;;;;;2.85;1.20;;;20.00;63.00;;;20.09;53.84;101988.19;5163296;28;20101;-61
2023/05/17 10:37:24;;;;;;;2.83;1.30;;;19.70;61.80;;;19.63;54.21;101983.94;5162986;28;20056;-63
2023/05/17 10:39:58;;;;;;;4.07;1.27;;;19.30;62.90;;;19.39;55.14;101992.31;5163082;28;20414;-61